TimeIST,TemperatureF,Dew PointF,Humidity,Sea Level PressureIn,VisibilityMPH,Wind Direction,Wind SpeedMPH,Gust SpeedMPH,PrecipitationIn,Events,Conditions,WindDirDegrees,DateUTC
12:00 AM,73.4,59.0,61,29.83,1.6,NW,4.6,-,N/A,,Haze,310,2013-03-30 18:30:00
12:30 AM,73.4,59.0,61,29.83,1.4,WSW,3.5,-,N/A,,Haze,240,2013-03-30 19:00:00
1:00 AM,71.6,59.0,64,29.80,1.4,SW,3.5,-,N/A,,Haze,230,2013-03-30 19:30:00
1:30 AM,69.8,59.0,68,29.80,1.4,WSW,3.5,-,N/A,,Haze,250,2013-03-30 20:00:00
2:00 AM,69.8,62.6,78,29.80,1.4,West,3.5,-,N/A,,Mist,260,2013-03-30 20:30:00
2:30 AM,68.0,62.6,83,29.80,1.4,West,3.5,-,N/A,,Mist,260,2013-03-30 21:00:00
3:00 AM,68.0,62.6,83,29.80,1.1,WSW,4.6,-,N/A,,Mist,250,2013-03-30 21:30:00
3:30 AM,66.2,64.4,94,29.80,0.6,SSW,4.6,-,N/A,,Mist,200,2013-03-30 22:00:00
4:00 AM,66.2,64.4,94,29.77,0.6,WNW,4.6,-,N/A,,Mist,290,2013-03-30 22:30:00
5:00 AM,66.2,64.4,94,29.77,0.5,WSW,3.5,-,N/A,Fog,Shallow Fog,250,2013-03-30 23:30:00
5:30 AM,66.2,64.4,94,29.77,0.4,WSW,3.5,-,N/A,Fog,Shallow Fog,250,2013-03-31 00:00:00
6:00 AM,64.4,64.4,100,29.80,0.4,SW,3.5,-,N/A,Fog,Shallow Fog,230,2013-03-31 00:30:00
6:30 AM,64.4,64.4,100,29.80,0.4,SW,3.5,-,N/A,Fog,Shallow Fog,220,2013-03-31 01:00:00
7:00 AM,64.4,64.4,100,29.80,0.4,SW,4.6,-,N/A,Fog,Shallow Fog,230,2013-03-31 01:30:00
7:30 AM,66.2,64.4,94,29.83,0.4,SW,4.6,-,N/A,Fog,Shallow Fog,220,2013-03-31 02:00:00
8:30 AM,69.8,69.8,100,29.83,0.6,WSW,6.9,-,N/A,,Mist,240,2013-03-31 03:00:00
9:00 AM,71.6,68.0,88,29.83,0.9,West,6.9,-,N/A,,Mist,270,2013-03-31 03:30:00
11:00 AM,80.6,60.8,51,29.86,-9999.0,WNW,10.4,-,N/A,,Haze,290,2013-03-31 05:30:00
11:30 AM,82.4,60.8,48,29.86,-9999.0,WNW,8.1,-,N/A,,Haze,300,2013-03-31 06:00:00
12:00 PM,84.2,59.0,42,29.86,2.2,WNW,9.2,-,N/A,,Haze,300,2013-03-31 06:30:00
12:30 PM,84.2,59.0,42,29.83,2.2,WNW,9.2,-,N/A,,Haze,300,2013-03-31 07:00:00
1:00 PM,86.0,57.2,37,29.83,2.5,West,11.5,-,N/A,,Haze,280,2013-03-31 07:30:00
1:30 PM,86.0,57.2,37,29.83,2.8,WNW,10.4,-,N/A,,Haze,300,2013-03-31 08:00:00
2:30 PM,87.8,57.2,35,29.80,3.1,NW,10.4,-,N/A,,Haze,320,2013-03-31 09:00:00
3:00 PM,87.8,53.6,31,29.77,3.1,WNW,10.4,-,N/A,,Haze,300,2013-03-31 09:30:00
3:30 PM,87.8,53.6,31,29.77,3.1,WNW,11.5,-,N/A,,Haze,300,2013-03-31 10:00:00
4:00 PM,87.8,53.6,31,29.77,3.1,NW,11.5,-,N/A,,Haze,320,2013-03-31 10:30:00
4:30 PM,87.8,53.6,31,29.77,3.1,NW,10.4,-,N/A,,Haze,320,2013-03-31 11:00:00
5:00 PM,86.0,53.6,33,29.77,3.1,NW,11.5,-,N/A,,Haze,320,2013-03-31 11:30:00
5:30 PM,86.0,51.8,31,29.77,3.1,NW,11.5,-,N/A,,Haze,320,2013-03-31 12:00:00
6:00 PM,84.2,53.6,35,29.77,3.1,WNW,9.2,-,N/A,,Haze,300,2013-03-31 12:30:00
6:30 PM,84.2,53.6,35,29.77,2.5,NW,9.2,-,N/A,,Haze,310,2013-03-31 13:00:00
7:00 PM,82.4,53.6,37,29.77,2.5,NW,9.2,-,N/A,,Haze,310,2013-03-31 13:30:00
7:30 PM,82.4,53.6,37,29.80,-9999.0,NW,8.1,-,N/A,,Haze,320,2013-03-31 14:00:00
8:00 PM,80.6,55.4,42,29.80,-9999.0,NW,6.9,-,N/A,,Haze,320,2013-03-31 14:30:00
9:00 PM,80.6,57.2,45,29.83,1.9,NNW,5.8,-,N/A,,Haze,330,2013-03-31 15:30:00
9:30 PM,78.8,57.2,47,29.83,1.5,NNW,4.6,-,N/A,,Haze,330,2013-03-31 16:00:00
10:00 PM,77.0,59.0,54,29.83,1.4,Calm,Calm,-,N/A,,Haze,0,2013-03-31 16:30:00
10:30 PM,73.4,59.0,61,29.83,1.2,Calm,Calm,-,N/A,,Smoke,0,2013-03-31 17:00:00
11:00 PM,73.4,59.0,61,29.83,1.2,Calm,Calm,-,N/A,,Smoke,0,2013-03-31 17:30:00
11:30 PM,71.6,59.0,64,29.83,1.1,Calm,Calm,-,N/A,,Smoke,0,2013-03-31 18:00:00